createdAt,value
2022-08-25T00:02:06.553Z,9.93
2022-08-25T00:04:38.139Z,12.90
2022-08-25T00:07:07.493Z,9.50
2022-08-25T00:09:35.506Z,9.80
2022-08-25T00:12:04.702Z,12.13
2022-08-25T00:14:37.211Z,11.13
2022-08-25T00:17:07.015Z,10.80
2022-08-25T00:19:38.553Z,11.73
2022-08-25T00:22:07.905Z,10.10
2022-08-25T00:24:35.488Z,11.55
2022-08-25T00:27:02.813Z,12.43
2022-08-25T00:29:32.377Z,12.25
2022-08-25T00:32:01.014Z,10.27
2022-08-25T00:34:35.080Z,11.38
2022-08-25T00:37:07.246Z,11.27
2022-08-25T00:39:34.997Z,14.07
2022-08-25T00:42:06.198Z,11.00
2022-08-25T00:44:40.054Z,9.98
2022-08-25T00:47:09.851Z,10.90
2022-08-25T00:49:49.404Z,10.88
2022-08-25T00:52:38.463Z,11.23
2022-08-25T00:55:21.715Z,12.60
2022-08-25T00:58:19.714Z,10.10
2022-08-25T01:00:52.975Z,15.05
2022-08-25T01:03:23.821Z,11.52
2022-08-25T01:05:55.262Z,10.93
2022-08-25T01:08:28.958Z,10.35
2022-08-25T01:10:59.406Z,17.63
2022-08-25T01:13:47.488Z,20.67
2022-08-25T01:16:16.713Z,17.05
2022-08-25T01:18:53.071Z,10.07
2022-08-25T01:21:23.329Z,12.23
2022-08-25T01:23:55.549Z,14.52
2022-08-25T01:26:31.061Z,12.10
2022-08-25T01:29:21.004Z,10.98
2022-08-25T01:32:08.891Z,13.45
2022-08-25T01:34:42.308Z,13.48
2022-08-25T01:37:14.548Z,12.18
2022-08-25T01:39:43.522Z,10.95
2022-08-25T01:42:54.027Z,12.73
2022-08-25T01:45:21.645Z,11.40
2022-08-25T01:47:49.535Z,11.67
2022-08-25T01:50:16.786Z,12.10
2022-08-25T01:52:59.914Z,11.82
2022-08-25T01:55:27.239Z,11.50
2022-08-25T01:57:54.370Z,9.45
2022-08-25T02:00:22.881Z,12.90
2022-08-25T02:02:52.259Z,13.90
2022-08-25T02:05:23.809Z,14.88
2022-08-25T02:07:51.045Z,13.50
2022-08-25T02:10:18.771Z,16.88
2022-08-25T02:12:45.962Z,9.23
2022-08-25T02:15:14.163Z,12.70
2022-08-25T02:17:41.156Z,9.75
2022-08-25T02:20:09.692Z,11.82
2022-08-25T02:22:36.917Z,13.85
2022-08-25T02:25:06.299Z,14.15
2022-08-25T02:27:33.716Z,14.77
2022-08-25T02:30:00.815Z,14.50
2022-08-25T02:32:27.986Z,14.30
2022-08-25T02:34:55.114Z,11.82
2022-08-25T02:37:22.235Z,16.20
2022-08-25T02:39:50.197Z,12.20
2022-08-25T02:42:17.253Z,16.02
2022-08-25T02:44:44.221Z,8.33
2022-08-25T02:47:11.230Z,11.57
2022-08-25T02:49:38.274Z,13.90
2022-08-25T02:52:05.546Z,16.83
2022-08-25T02:54:32.522Z,18.90
2022-08-25T02:56:59.881Z,16.00
2022-08-25T02:59:27.353Z,17.42
2022-08-25T03:01:54.613Z,15.85
2022-08-25T03:04:21.872Z,16.02
2022-08-25T03:06:49.264Z,32.28
2022-08-25T03:09:16.947Z,20.33
2022-08-25T03:11:44.071Z,22.52
2022-08-25T03:14:11.430Z,30.40
2022-08-25T03:16:38.815Z,36.20
2022-08-25T03:19:06.403Z,36.05
2022-08-25T03:21:33.995Z,56.67
2022-08-25T03:24:01.331Z,74.53
2022-08-25T03:26:50.826Z,36.15
2022-08-25T03:29:18.678Z,41.88
2022-08-25T03:31:48.967Z,38.80
2022-08-25T03:34:18.991Z,40.10
2022-08-25T03:36:52.502Z,26.00
2022-08-25T03:39:23.376Z,53.25
2022-08-25T03:41:51.716Z,24.73
2022-08-25T03:44:23.930Z,88.33
2022-08-25T03:46:53.134Z,41.53
2022-08-25T03:49:24.214Z,30.90
2022-08-25T03:51:54.977Z,33.67
2022-08-25T03:54:25.949Z,68.95
2022-08-25T03:56:53.995Z,46.43
2022-08-25T03:59:21.583Z,38.22
2022-08-25T04:01:54.549Z,33.63
2022-08-25T04:04:23.017Z,45.00
2022-08-25T04:06:50.278Z,57.65
2022-08-25T04:09:17.256Z,34.30
2022-08-25T04:11:44.489Z,35.10
2022-08-25T04:14:15.921Z,22.77
2022-08-25T04:16:47.781Z,38.45
2022-08-25T04:19:15.098Z,43.77
2022-08-25T04:21:42.498Z,21.77
2022-08-25T04:24:12.825Z,26.93
2022-08-25T04:26:49.130Z,39.80
2022-08-25T04:29:23.760Z,40.17
2022-08-25T04:31:53.439Z,71.73
2022-08-25T04:34:30.130Z,44.37
2022-08-25T04:37:02.821Z,40.90
2022-08-25T04:39:31.192Z,41.13
2022-08-25T04:42:00.441Z,43.67
2022-08-25T04:44:28.500Z,44.78
2022-08-25T04:46:55.504Z,27.33
2022-08-25T04:49:24.050Z,55.80
2022-08-25T04:51:51.346Z,72.93
2022-08-25T04:54:21.941Z,43.35
2022-08-25T04:56:54.671Z,33.80
2022-08-25T04:59:30.152Z,93.28
2022-08-25T05:02:03.540Z,47.65
2022-08-25T05:04:33.393Z,31.38
2022-08-25T05:07:01.059Z,62.85
2022-08-25T05:09:28.526Z,36.58
2022-08-25T05:11:59.860Z,62.42
2022-08-25T05:14:26.937Z,48.85
2022-08-25T05:16:55.714Z,61.42
2022-08-25T05:19:24.426Z,46.85
2022-08-25T05:21:52.126Z,45.95
2022-08-25T05:24:20.479Z,58.03
2022-08-25T05:26:47.869Z,70.15
2022-08-25T05:29:15.643Z,52.72
2022-08-25T05:31:48.247Z,33.13
2022-08-25T05:34:18.744Z,51.55
2022-08-25T05:36:46.167Z,59.67
2022-08-25T05:39:13.482Z,41.30
2022-08-25T05:41:40.746Z,69.78
2022-08-25T05:44:08.456Z,75.88
2022-08-25T05:46:36.554Z,42.58
2022-08-25T05:49:03.923Z,64.72
2022-08-25T05:51:31.079Z,50.30
2022-08-25T05:54:00.663Z,35.33
2022-08-25T05:56:27.651Z,51.58
2022-08-25T05:58:54.641Z,25.60
2022-08-25T06:01:46.176Z,37.45
2022-08-25T06:04:18.057Z,33.17
2022-08-25T06:06:45.252Z,26.55
2022-08-25T06:09:12.534Z,31.45
2022-08-25T06:11:41.429Z,34.10
2022-08-25T06:14:10.465Z,29.70
2022-08-25T06:16:39.133Z,39.65
2022-08-25T06:19:09.639Z,27.23
2022-08-25T06:21:41.363Z,47.90
2022-08-25T06:24:15.266Z,34.25
2022-08-25T06:26:44.005Z,39.88
2022-08-25T06:29:11.177Z,39.33
2022-08-25T06:31:38.338Z,37.15
2022-08-25T06:34:06.197Z,42.90
2022-08-25T06:36:34.600Z,41.92
2022-08-25T06:39:01.698Z,34.25
2022-08-25T06:41:36.797Z,41.47
2022-08-25T06:44:05.910Z,35.83
2022-08-25T06:46:35.937Z,30.67
2022-08-25T06:49:06.948Z,34.17
2022-08-25T06:51:35.969Z,38.40
2022-08-25T06:54:06.972Z,33.97
2022-08-25T06:56:34.678Z,39.97
2022-08-25T06:59:04.618Z,28.55
2022-08-25T07:01:32.344Z,43.55
2022-08-25T07:04:02.984Z,42.60
2022-08-25T07:06:35.405Z,41.17
2022-08-25T07:09:08.536Z,45.20
2022-08-25T07:11:35.897Z,41.28
2022-08-25T07:14:06.129Z,38.75
2022-08-25T07:16:33.732Z,38.30
2022-08-25T07:19:03.597Z,41.88
2022-08-25T07:21:35.732Z,42.55
2022-08-25T07:24:11.088Z,36.63
2022-08-25T07:26:42.392Z,40.65
2022-08-25T07:29:32.854Z,28.83
2022-08-25T07:32:02.026Z,31.77
2022-08-25T07:34:52.274Z,27.88
2022-08-25T07:40:15.293Z,25.15
2022-08-25T07:42:42.762Z,30.20
2022-08-25T07:45:12.914Z,26.92
2022-08-25T07:47:40.581Z,23.63
2022-08-25T07:50:12.277Z,22.73
2022-08-25T07:52:41.416Z,21.35
2022-08-25T07:55:11.042Z,22.45
2022-08-25T07:57:41.911Z,21.83
2022-08-25T08:00:13.602Z,19.60
2022-08-25T08:02:42.139Z,18.83
2022-08-25T08:05:12.265Z,20.38
2022-08-25T08:07:43.464Z,17.10
2022-08-25T08:10:48.198Z,17.38
2022-08-25T08:13:02.524Z,16.98
2022-08-25T08:15:30.317Z,14.18
2022-08-25T08:17:59.693Z,15.52
2022-08-25T08:20:28.726Z,16.48
2022-08-25T08:22:55.896Z,17.20
2022-08-25T08:25:27.497Z,16.25
2022-08-25T08:27:56.702Z,16.85
2022-08-25T08:30:26.165Z,15.60
2022-08-25T08:33:11.852Z,19.85
2022-08-25T08:35:43.948Z,14.60
2022-08-25T08:38:17.375Z,16.65
2022-08-25T08:41:40.173Z,14.93
2022-08-25T08:44:50.368Z,15.63
2022-08-25T08:48:02.954Z,18.02
2022-08-25T08:50:57.361Z,13.73
2022-08-25T08:53:58.148Z,17.63
2022-08-25T08:56:47.957Z,19.83
2022-08-25T08:59:30.781Z,16.58
2022-08-25T09:02:01.030Z,17.63
2022-08-25T09:05:16.805Z,16.50
2022-08-25T09:07:57.852Z,15.75
2022-08-25T09:10:40.328Z,15.60
2022-08-25T09:14:05.290Z,15.90
2022-08-25T09:17:34.482Z,12.80
2022-08-25T09:20:47.028Z,13.88
2022-08-25T09:24:25.038Z,22.10
2022-08-25T09:27:47.118Z,18.17
2022-08-25T09:30:21.137Z,15.73
2022-08-25T09:33:02.081Z,13.25
2022-08-25T09:35:34.723Z,11.77
2022-08-25T09:38:10.118Z,9.45
2022-08-25T09:40:49.246Z,16.60
2022-08-25T09:43:43.613Z,11.52
2022-08-25T09:46:29.748Z,11.65
2022-08-25T09:49:13.707Z,12.80
2022-08-25T09:51:42.947Z,18.70
2022-08-25T09:54:12.965Z,10.00
2022-08-25T09:57:01.842Z,9.85
2022-08-25T09:59:36.579Z,10.65
2022-08-25T10:02:25.769Z,9.93
2022-08-25T10:04:53.469Z,11.25
2022-08-25T10:07:36.184Z,12.18
2022-08-25T10:10:35.133Z,11.30
2022-08-25T10:13:12.158Z,10.55
2022-08-25T10:15:39.702Z,9.60
2022-08-25T10:18:29.435Z,7.82
2022-08-25T10:21:14.923Z,9.55
2022-08-25T10:23:53.459Z,16.23
2022-08-25T10:27:14.830Z,9.25
2022-08-25T10:30:57.094Z,11.50
2022-08-25T10:34:08.901Z,10.02
2022-08-25T10:37:10.920Z,13.00
2022-08-25T10:39:45.744Z,13.27
2022-08-25T10:42:43.465Z,12.55
2022-08-25T10:45:43.087Z,12.40
2022-08-25T10:49:19.578Z,12.45
2022-08-25T10:52:14.788Z,12.32
2022-08-25T10:55:01.782Z,12.85
2022-08-25T10:57:53.152Z,13.40
2022-08-25T11:00:31.752Z,14.68
2022-08-25T11:03:44.503Z,8.38
2022-08-25T11:06:54.829Z,10.30
2022-08-25T11:09:36.454Z,9.07
2022-08-25T11:12:15.646Z,12.75
2022-08-25T11:14:57.156Z,11.13
2022-08-25T11:17:42.903Z,12.73
2022-08-25T11:20:27.116Z,10.75
2022-08-25T11:23:32.370Z,10.90
2022-08-25T11:26:17.316Z,13.05
2022-08-25T11:28:52.543Z,8.63
2022-08-25T11:31:23.041Z,12.98
2022-08-25T11:33:51.685Z,11.07
2022-08-25T11:36:37.578Z,11.30
2022-08-25T11:39:34.661Z,10.77
2022-08-25T11:42:42.882Z,9.35
2022-08-25T11:45:54.504Z,13.63
2022-08-25T11:49:02.104Z,9.75
2022-08-25T11:51:49.094Z,11.10
2022-08-25T11:54:44.060Z,10.43
2022-08-25T11:57:27.763Z,12.13
2022-08-25T11:59:57.846Z,10.90
2022-08-25T12:02:37.526Z,11.10
2022-08-25T12:05:36.774Z,14.10
2022-08-25T12:08:25.418Z,12.18
2022-08-25T12:11:10.663Z,11.20
2022-08-25T12:13:49.113Z,19.17
2022-08-25T12:16:36.243Z,17.17
2022-08-25T12:19:35.621Z,9.00
2022-08-25T12:22:03.955Z,12.75
2022-08-25T12:24:47.931Z,12.27
2022-08-25T12:27:58.198Z,10.93
2022-08-25T12:30:53.734Z,11.85
2022-08-25T12:34:04.272Z,8.88
2022-08-25T12:36:33.992Z,9.85
2022-08-25T12:39:24.597Z,13.32
2022-08-25T12:42:04.192Z,11.05
2022-08-25T12:44:39.599Z,15.80
2022-08-25T12:47:19.523Z,9.45
2022-08-25T12:49:51.460Z,10.40
2022-08-25T12:52:28.134Z,13.15
2022-08-25T12:55:06.148Z,18.45
2022-08-25T12:57:57.594Z,12.00
2022-08-25T13:00:35.207Z,16.85
2022-08-25T13:03:26.099Z,10.07
2022-08-25T13:06:02.668Z,15.45
2022-08-25T13:09:18.878Z,12.00
2022-08-25T13:12:40.428Z,12.00
2022-08-25T13:15:24.870Z,10.10
2022-08-25T13:17:59.004Z,9.20
2022-08-25T13:20:29.244Z,8.38
2022-08-25T13:23:00.794Z,10.48
2022-08-25T13:25:32.449Z,8.20
2022-08-25T13:28:06.344Z,10.95
2022-08-25T13:30:37.074Z,14.70
2022-08-25T13:33:26.398Z,9.23
2022-08-25T13:36:16.574Z,15.05
2022-08-25T13:38:46.667Z,11.48
2022-08-25T13:41:29.228Z,11.95
2022-08-25T13:44:00.780Z,10.70
2022-08-25T13:46:30.125Z,19.42
2022-08-25T13:49:08.797Z,13.77
2022-08-25T13:51:39.091Z,10.52
2022-08-25T13:54:23.823Z,9.00
2022-08-25T13:56:52.443Z,10.45
2022-08-25T13:59:31.086Z,14.95
2022-08-25T14:01:59.834Z,11.70
2022-08-25T14:04:44.091Z,10.23
2022-08-25T14:07:22.318Z,10.93
2022-08-25T14:10:07.210Z,12.98
2022-08-25T14:12:47.663Z,7.47
2022-08-25T14:15:17.491Z,15.00
2022-08-25T14:18:06.837Z,16.27
2022-08-25T14:20:37.142Z,13.43
2022-08-25T14:23:16.310Z,12.55
2022-08-25T14:25:48.744Z,16.88
2022-08-25T14:28:25.458Z,10.77
2022-08-25T14:31:35.581Z,12.45
2022-08-25T14:34:16.329Z,21.92
2022-08-25T14:36:44.903Z,16.42
2022-08-25T14:39:12.650Z,15.35
2022-08-25T14:41:45.296Z,12.05
2022-08-25T14:44:18.493Z,11.77
2022-08-25T14:46:54.095Z,11.13
2022-08-25T14:49:33.625Z,12.90
2022-08-25T14:52:30.353Z,11.25
2022-08-25T14:54:57.613Z,8.75
2022-08-25T14:57:25.827Z,11.35
2022-08-25T14:59:53.586Z,11.35
2022-08-25T15:02:29.333Z,19.63
2022-08-25T15:05:02.179Z,16.10
2022-08-25T15:07:50.152Z,7.95
2022-08-25T15:10:17.915Z,14.18
2022-08-25T15:12:47.890Z,13.63
2022-08-25T15:15:15.361Z,11.98
2022-08-25T15:17:44.767Z,13.10
2022-08-25T15:20:12.534Z,10.45
2022-08-25T15:22:41.702Z,11.85
2022-08-25T15:25:08.947Z,7.88
2022-08-25T15:27:36.768Z,11.20
2022-08-25T15:30:05.498Z,16.70
2022-08-25T15:32:32.554Z,11.85
2022-08-25T15:35:00.658Z,13.55
2022-08-25T15:37:28.576Z,9.02
2022-08-25T15:39:55.992Z,15.45
2022-08-25T15:42:23.091Z,10.45
2022-08-25T15:44:53.274Z,13.05
2022-08-25T15:47:24.022Z,8.77
2022-08-25T15:50:01.564Z,18.50
2022-08-25T15:52:44.554Z,15.05
2022-08-25T15:55:16.376Z,22.00
2022-08-25T15:57:43.806Z,18.65
2022-08-25T16:00:13.729Z,17.10
2022-08-25T16:02:45.497Z,19.13
2022-08-25T16:05:13.672Z,16.77
2022-08-25T16:07:45.844Z,11.35
2022-08-25T16:10:13.599Z,18.30
2022-08-25T16:12:42.702Z,15.70
2022-08-25T16:15:12.233Z,14.38
2022-08-25T16:17:40.666Z,12.82
2022-08-25T16:20:13.633Z,16.40
2022-08-25T16:22:41.512Z,20.48
2022-08-25T16:25:10.638Z,20.13
2022-08-25T16:27:38.831Z,24.40
2022-08-25T16:30:17.520Z,17.23
2022-08-25T16:32:46.609Z,17.60
2022-08-25T16:35:14.225Z,19.50
2022-08-25T16:37:41.467Z,18.02
2022-08-25T16:40:14.715Z,16.15
2022-08-25T16:42:42.184Z,25.15
2022-08-25T16:45:10.072Z,13.07
2022-08-25T16:47:42.559Z,20.05
2022-08-25T16:50:11.061Z,22.50
2022-08-25T16:52:58.177Z,21.25
2022-08-25T16:55:28.479Z,18.10
2022-08-25T16:58:06.938Z,23.60
2022-08-25T17:00:38.740Z,20.92
2022-08-25T17:03:06.975Z,24.10
2022-08-25T17:05:42.185Z,17.70
2022-08-25T17:08:27.887Z,26.30
2022-08-25T17:11:17.665Z,20.38
2022-08-25T17:13:53.127Z,14.55
2022-08-25T17:16:27.739Z,22.77
2022-08-25T17:18:55.432Z,17.17
2022-08-25T17:21:26.751Z,19.42
2022-08-25T17:23:57.296Z,17.70
2022-08-25T17:26:28.106Z,17.77
2022-08-25T17:29:01.038Z,19.70
2022-08-25T17:31:29.982Z,23.50
2022-08-25T17:33:58.453Z,18.50
2022-08-25T17:36:27.153Z,18.70
2022-08-25T17:38:56.921Z,19.05
2022-08-25T17:41:24.992Z,26.48
2022-08-25T17:43:52.113Z,16.40
2022-08-25T17:46:19.199Z,20.30
2022-08-25T17:48:46.205Z,14.98
2022-08-25T17:51:13.356Z,16.67
2022-08-25T17:53:43.781Z,16.73
2022-08-25T17:56:17.327Z,17.67
2022-08-25T17:58:47.138Z,20.23
2022-08-25T18:01:22.592Z,20.05
2022-08-25T18:03:50.636Z,20.35
2022-08-25T18:06:18.960Z,14.05
2022-08-25T18:08:50.254Z,24.15
2022-08-25T18:11:23.557Z,16.92
2022-08-25T18:13:53.846Z,21.73
2022-08-25T18:16:22.992Z,20.48
2022-08-25T18:18:51.456Z,21.52
2022-08-25T18:21:22.555Z,22.48
2022-08-25T18:23:49.974Z,18.33
2022-08-25T18:26:21.958Z,17.88
2022-08-25T18:28:52.567Z,15.50
2022-08-25T18:31:19.824Z,19.48
2022-08-25T18:33:47.674Z,16.15
2022-08-25T18:36:20.436Z,15.45
2022-08-25T18:39:07.308Z,23.50
2022-08-25T18:41:41.119Z,24.10
2022-08-25T18:44:10.561Z,14.70
2022-08-25T18:46:39.323Z,18.52
2022-08-25T18:49:06.390Z,11.95
2022-08-25T18:51:33.487Z,16.45
2022-08-25T18:54:01.437Z,13.77
2022-08-25T18:56:29.136Z,17.13
2022-08-25T18:58:57.137Z,16.65
2022-08-25T19:01:24.616Z,13.27
2022-08-25T19:03:51.826Z,18.95
2022-08-25T19:06:20.194Z,19.30
2022-08-25T19:08:48.458Z,18.33
2022-08-25T19:11:17.511Z,24.27
2022-08-25T19:13:50.888Z,20.65
2022-08-25T19:16:41.396Z,11.43
2022-08-25T19:19:13.056Z,17.45
2022-08-25T19:21:43.745Z,16.83
2022-08-25T19:24:14.301Z,15.68
2022-08-25T19:26:43.445Z,19.60
2022-08-25T19:29:17.128Z,22.08
2022-08-25T19:31:47.534Z,27.30
2022-08-25T19:34:30.355Z,19.63
2022-08-25T19:37:02.419Z,23.10
2022-08-25T19:39:34.860Z,16.55
2022-08-25T19:42:03.177Z,18.73
2022-08-25T19:44:30.659Z,19.48
2022-08-25T19:46:58.037Z,22.83
2022-08-25T19:49:34.186Z,29.10
2022-08-25T19:52:10.384Z,18.63
2022-08-25T19:54:45.757Z,24.67
2022-08-25T19:57:27.704Z,17.85
2022-08-25T19:59:56.221Z,23.35
2022-08-25T20:02:29.506Z,24.95
2022-08-25T20:05:01.935Z,18.08
2022-08-25T20:07:31.841Z,20.33
2022-08-25T20:10:01.267Z,17.48
2022-08-25T20:12:29.356Z,19.80
2022-08-25T20:14:57.794Z,22.63
2022-08-25T20:17:26.071Z,14.43
2022-08-25T20:20:00.074Z,16.33
2022-08-25T20:22:32.117Z,13.32
2022-08-25T20:25:13.422Z,16.15
2022-08-25T20:27:53.813Z,18.70
2022-08-25T20:30:29.596Z,18.17
2022-08-25T20:32:58.119Z,17.20
2022-08-25T20:35:27.336Z,11.85
2022-08-25T20:37:58.973Z,14.50
2022-08-25T20:40:30.399Z,17.33
2022-08-25T20:43:03.236Z,12.02
2022-08-25T20:45:30.616Z,13.00
2022-08-25T20:47:57.691Z,14.90
2022-08-25T20:50:25.555Z,14.18
2022-08-25T20:52:58.295Z,17.30
2022-08-25T20:55:27.700Z,18.55
2022-08-25T20:57:55.102Z,17.92
2022-08-25T21:00:23.587Z,14.18
2022-08-25T21:02:52.849Z,13.02
2022-08-25T21:05:20.068Z,15.65
2022-08-25T21:07:47.085Z,12.60
2022-08-25T21:10:16.064Z,13.35
2022-08-25T21:12:44.949Z,15.52
2022-08-25T21:15:13.650Z,14.30
2022-08-25T21:17:50.522Z,17.35
2022-08-25T21:20:18.342Z,14.07
2022-08-25T21:22:45.427Z,12.85
2022-08-25T21:25:13.596Z,14.68
2022-08-25T21:27:40.613Z,21.83
2022-08-25T21:30:12.002Z,16.98
2022-08-25T21:32:39.011Z,18.50
2022-08-25T21:35:07.909Z,13.88
2022-08-25T21:37:35.153Z,11.55
2022-08-25T21:40:02.357Z,13.70
2022-08-25T21:42:32.432Z,17.02
2022-08-25T21:44:59.392Z,16.90
2022-08-25T21:47:26.401Z,17.27
2022-08-25T21:49:53.935Z,12.07
2022-08-25T21:52:21.135Z,14.82
2022-08-25T21:54:48.180Z,10.55
2022-08-25T21:57:17.869Z,15.20
2022-08-25T21:59:46.379Z,18.25
2022-08-25T22:02:14.050Z,20.58
2022-08-25T22:04:42.168Z,15.43
2022-08-25T22:07:10.952Z,18.60
2022-08-25T22:09:39.126Z,15.13
2022-08-25T22:12:06.939Z,15.45
2022-08-25T22:14:36.103Z,22.90
2022-08-25T22:17:03.586Z,15.55
2022-08-25T22:19:30.822Z,16.92
2022-08-25T22:22:00.810Z,14.70
2022-08-25T22:24:28.125Z,17.15
2022-08-25T22:26:56.392Z,20.77
2022-08-25T22:29:25.806Z,18.48
2022-08-25T22:32:00.980Z,13.40
2022-08-25T22:34:34.193Z,18.23
2022-08-25T22:37:03.794Z,19.42
2022-08-25T22:39:34.443Z,17.67
2022-08-25T22:42:03.616Z,16.55
2022-08-25T22:44:31.050Z,13.93
2022-08-25T22:46:58.211Z,22.90
2022-08-25T22:49:29.507Z,14.85
2022-08-25T22:51:57.184Z,19.70
2022-08-25T22:54:25.526Z,14.05
2022-08-25T22:56:53.338Z,14.05
2022-08-25T22:59:22.446Z,21.05
2022-08-25T23:01:52.325Z,14.25
2022-08-25T23:04:19.550Z,17.45
2022-08-25T23:06:47.422Z,15.80
2022-08-25T23:09:14.859Z,13.95
2022-08-25T23:11:42.514Z,20.40
2022-08-25T23:14:11.443Z,10.93
2022-08-25T23:16:41.974Z,16.60
2022-08-25T23:19:14.023Z,12.90
2022-08-25T23:22:01.824Z,15.48
2022-08-25T23:24:31.008Z,15.02
2022-08-25T23:27:04.286Z,16.25
2022-08-25T23:29:35.840Z,11.85
2022-08-25T23:32:04.531Z,16.38
2022-08-25T23:34:31.550Z,16.13
2022-08-25T23:37:01.250Z,20.13
2022-08-25T23:39:28.735Z,15.02
2022-08-25T23:41:58.018Z,16.13
2022-08-25T23:44:25.778Z,16.58
2022-08-25T23:46:53.744Z,19.58
2022-08-25T23:49:23.678Z,22.95
2022-08-25T23:51:52.992Z,15.63
2022-08-25T23:54:21.530Z,20.10
2022-08-25T23:56:52.391Z,16.52
2022-08-25T23:59:24.489Z,17.67
